sensor_id;sensor_type;location;lat;lon;timestamp;P1;durP1;ratioP1;P2;durP2;ratioP2
7263;SDS011;3673;52.480;13.348;2023-04-15T00:00:17;25.67;;;20.45;;
7263;SDS011;3673;52.480;13.348;2023-04-15T00:02:44;22.60;;;19.20;;
7263;SDS011;3673;52.480;13.348;2023-04-15T00:05:12;29.20;;;20.60;;
7263;SDS011;3673;52.480;13.348;2023-04-15T00:07:39;26.73;;;18.83;;
7263;SDS011;3673;52.480;13.348;2023-04-15T00:10:06;27.60;;;21.02;;
7263;SDS011;3673;52.480;13.348;2023-04-15T00:12:34;29.48;;;21.45;;
7263;SDS011;3673;52.480;13.348;2023-04-15T00:15:01;29.83;;;22.00;;
7263;SDS011;3673;52.480;13.348;2023-04-15T00:17:29;26.80;;;20.55;;
7263;SDS011;3673;52.480;13.348;2023-04-15T00:19:56;25.98;;;20.52;;
7263;SDS011;3673;52.480;13.348;2023-04-15T00:22:23;28.65;;;22.05;;
7263;SDS011;3673;52.480;13.348;2023-04-15T00:24:51;29.50;;;21.58;;
7263;SDS011;3673;52.480;13.348;2023-04-15T00:27:18;30.50;;;21.90;;
7263;SDS011;3673;52.480;13.348;2023-04-15T00:29:44;29.27;;;22.10;;
7263;SDS011;3673;52.480;13.348;2023-04-15T00:32:11;31.23;;;22.65;;
7263;SDS011;3673;52.480;13.348;2023-04-15T00:34:39;28.55;;;21.40;;
7263;SDS011;3673;52.480;13.348;2023-04-15T00:37:07;31.38;;;23.05;;
7263;SDS011;3673;52.480;13.348;2023-04-15T00:39:34;36.55;;;24.85;;
7263;SDS011;3673;52.480;13.348;2023-04-15T00:42:01;32.13;;;23.58;;
7263;SDS011;3673;52.480;13.348;2023-04-15T00:44:30;30.35;;;23.40;;
7263;SDS011;3673;52.480;13.348;2023-04-15T00:46:57;31.75;;;22.75;;
7263;SDS011;3673;52.480;13.348;2023-04-15T00:49:26;31.98;;;23.83;;
7263;SDS011;3673;52.480;13.348;2023-04-15T00:51:55;30.60;;;24.08;;
7263;SDS011;3673;52.480;13.348;2023-04-15T00:54:22;31.77;;;23.35;;
7263;SDS011;3673;52.480;13.348;2023-04-15T00:56:49;33.17;;;24.63;;
7263;SDS011;3673;52.480;13.348;2023-04-15T00:59:16;32.72;;;23.23;;
7263;SDS011;3673;52.480;13.348;2023-04-15T01:01:43;35.53;;;25.10;;
7263;SDS011;3673;52.480;13.348;2023-04-15T01:04:11;32.97;;;24.27;;
7263;SDS011;3673;52.480;13.348;2023-04-15T01:06:38;31.98;;;23.63;;
7263;SDS011;3673;52.480;13.348;2023-04-15T01:09:06;34.45;;;24.65;;
7263;SDS011;3673;52.480;13.348;2023-04-15T01:11:33;34.58;;;23.75;;
7263;SDS011;3673;52.480;13.348;2023-04-15T01:14:00;33.28;;;24.73;;
7263;SDS011;3673;52.480;13.348;2023-04-15T01:16:28;32.67;;;24.55;;
7263;SDS011;3673;52.480;13.348;2023-04-15T01:18:56;31.40;;;23.05;;
7263;SDS011;3673;52.480;13.348;2023-04-15T01:21:23;35.00;;;25.15;;
7263;SDS011;3673;52.480;13.348;2023-04-15T01:23:50;34.20;;;24.33;;
7263;SDS011;3673;52.480;13.348;2023-04-15T01:26:22;33.65;;;22.85;;
7263;SDS011;3673;52.480;13.348;2023-04-15T01:28:49;35.38;;;25.23;;
7263;SDS011;3673;52.480;13.348;2023-04-15T01:31:16;34.05;;;24.27;;
7263;SDS011;3673;52.480;13.348;2023-04-15T01:33:42;39.05;;;24.23;;
7263;SDS011;3673;52.480;13.348;2023-04-15T01:36:11;38.05;;;26.23;;
7263;SDS011;3673;52.480;13.348;2023-04-15T01:38:38;33.97;;;24.88;;
7263;SDS011;3673;52.480;13.348;2023-04-15T01:41:06;35.17;;;25.40;;
7263;SDS011;3673;52.480;13.348;2023-04-15T01:43:34;36.42;;;24.73;;
7263;SDS011;3673;52.480;13.348;2023-04-15T01:46:01;37.05;;;25.02;;
7263;SDS011;3673;52.480;13.348;2023-04-15T01:48:28;39.40;;;25.58;;
7263;SDS011;3673;52.480;13.348;2023-04-15T01:50:55;39.63;;;26.55;;
7263;SDS011;3673;52.480;13.348;2023-04-15T01:53:22;35.67;;;24.83;;
7263;SDS011;3673;52.480;13.348;2023-04-15T01:55:49;35.30;;;23.73;;
7263;SDS011;3673;52.480;13.348;2023-04-15T01:58:17;38.42;;;25.70;;
7263;SDS011;3673;52.480;13.348;2023-04-15T02:00:45;40.47;;;26.90;;
7263;SDS011;3673;52.480;13.348;2023-04-15T02:03:12;36.20;;;24.55;;
7263;SDS011;3673;52.480;13.348;2023-04-15T02:05:39;40.55;;;26.52;;
7263;SDS011;3673;52.480;13.348;2023-04-15T02:08:06;35.85;;;25.30;;
7263;SDS011;3673;52.480;13.348;2023-04-15T02:10:33;36.00;;;25.30;;
7263;SDS011;3673;52.480;13.348;2023-04-15T02:13:00;39.78;;;26.05;;
7263;SDS011;3673;52.480;13.348;2023-04-15T02:15:27;38.00;;;26.02;;
7263;SDS011;3673;52.480;13.348;2023-04-15T02:17:55;43.03;;;27.88;;
7263;SDS011;3673;52.480;13.348;2023-04-15T02:20:24;38.75;;;26.52;;
7263;SDS011;3673;52.480;13.348;2023-04-15T02:22:51;39.78;;;25.70;;
7263;SDS011;3673;52.480;13.348;2023-04-15T02:25:18;40.40;;;27.17;;
7263;SDS011;3673;52.480;13.348;2023-04-15T02:27:45;35.03;;;24.35;;
7263;SDS011;3673;52.480;13.348;2023-04-15T02:30:12;36.05;;;25.02;;
7263;SDS011;3673;52.480;13.348;2023-04-15T02:32:39;38.55;;;24.92;;
7263;SDS011;3673;52.480;13.348;2023-04-15T02:35:10;39.80;;;26.58;;
7263;SDS011;3673;52.480;13.348;2023-04-15T02:37:37;37.63;;;26.20;;
7263;SDS011;3673;52.480;13.348;2023-04-15T02:40:07;39.38;;;25.45;;
7263;SDS011;3673;52.480;13.348;2023-04-15T02:42:36;40.85;;;26.63;;
7263;SDS011;3673;52.480;13.348;2023-04-15T02:45:03;39.47;;;25.15;;
7263;SDS011;3673;52.480;13.348;2023-04-15T02:47:31;38.45;;;25.48;;
7263;SDS011;3673;52.480;13.348;2023-04-15T02:49:59;36.70;;;24.58;;
7263;SDS011;3673;52.480;13.348;2023-04-15T02:52:29;35.10;;;24.17;;
7263;SDS011;3673;52.480;13.348;2023-04-15T02:54:56;39.53;;;25.75;;
7263;SDS011;3673;52.480;13.348;2023-04-15T02:57:25;37.00;;;24.42;;
7263;SDS011;3673;52.480;13.348;2023-04-15T02:59:53;37.72;;;25.00;;
7263;SDS011;3673;52.480;13.348;2023-04-15T03:02:20;38.08;;;25.20;;
7263;SDS011;3673;52.480;13.348;2023-04-15T03:04:47;37.92;;;24.85;;
7263;SDS011;3673;52.480;13.348;2023-04-15T03:07:13;39.35;;;25.63;;
7263;SDS011;3673;52.480;13.348;2023-04-15T03:09:42;35.97;;;24.77;;
7263;SDS011;3673;52.480;13.348;2023-04-15T03:12:09;38.65;;;25.58;;
7263;SDS011;3673;52.480;13.348;2023-04-15T03:14:36;34.92;;;22.67;;
7263;SDS011;3673;52.480;13.348;2023-04-15T03:17:02;41.47;;;26.63;;
7263;SDS011;3673;52.480;13.348;2023-04-15T03:19:29;37.72;;;25.08;;
7263;SDS011;3673;52.480;13.348;2023-04-15T03:21:56;40.05;;;24.75;;
7263;SDS011;3673;52.480;13.348;2023-04-15T03:24:23;36.15;;;25.02;;
7263;SDS011;3673;52.480;13.348;2023-04-15T03:26:51;38.63;;;24.60;;
7263;SDS011;3673;52.480;13.348;2023-04-15T03:29:19;37.17;;;24.85;;
7263;SDS011;3673;52.480;13.348;2023-04-15T03:31:46;39.35;;;24.35;;
7263;SDS011;3673;52.480;13.348;2023-04-15T03:34:12;39.08;;;23.92;;
7263;SDS011;3673;52.480;13.348;2023-04-15T03:36:39;38.83;;;25.58;;
7263;SDS011;3673;52.480;13.348;2023-04-15T03:39:06;38.50;;;26.02;;
7263;SDS011;3673;52.480;13.348;2023-04-15T03:41:33;36.08;;;24.27;;
7263;SDS011;3673;52.480;13.348;2023-04-15T03:44:01;37.17;;;24.27;;
7263;SDS011;3673;52.480;13.348;2023-04-15T03:46:28;37.70;;;24.42;;
7263;SDS011;3673;52.480;13.348;2023-04-15T03:48:55;34.38;;;22.88;;
7263;SDS011;3673;52.480;13.348;2023-04-15T03:51:22;35.30;;;23.73;;
7263;SDS011;3673;52.480;13.348;2023-04-15T03:53:49;40.22;;;25.52;;
7263;SDS011;3673;52.480;13.348;2023-04-15T03:56:15;35.55;;;23.55;;
7263;SDS011;3673;52.480;13.348;2023-04-15T03:58:42;32.45;;;22.63;;
7263;SDS011;3673;52.480;13.348;2023-04-15T04:01:10;35.38;;;24.00;;
7263;SDS011;3673;52.480;13.348;2023-04-15T04:03:37;40.33;;;24.20;;
7263;SDS011;3673;52.480;13.348;2023-04-15T04:06:04;34.92;;;22.70;;
7263;SDS011;3673;52.480;13.348;2023-04-15T04:08:32;29.75;;;21.77;;
7263;SDS011;3673;52.480;13.348;2023-04-15T04:10:58;35.38;;;23.73;;
7263;SDS011;3673;52.480;13.348;2023-04-15T04:13:25;37.75;;;23.33;;
7263;SDS011;3673;52.480;13.348;2023-04-15T04:15:52;34.25;;;22.85;;
7263;SDS011;3673;52.480;13.348;2023-04-15T04:18:20;33.92;;;23.65;;
7263;SDS011;3673;52.480;13.348;2023-04-15T04:20:47;32.25;;;22.65;;
7263;SDS011;3673;52.480;13.348;2023-04-15T04:23:14;32.35;;;22.23;;
7263;SDS011;3673;52.480;13.348;2023-04-15T04:25:41;34.00;;;21.17;;
7263;SDS011;3673;52.480;13.348;2023-04-15T04:28:08;31.52;;;22.52;;
7263;SDS011;3673;52.480;13.348;2023-04-15T04:30:35;30.30;;;21.48;;
7263;SDS011;3673;52.480;13.348;2023-04-15T04:33:03;29.17;;;21.15;;
7263;SDS011;3673;52.480;13.348;2023-04-15T04:35:31;30.88;;;21.55;;
7263;SDS011;3673;52.480;13.348;2023-04-15T04:38:01;31.42;;;20.75;;
7263;SDS011;3673;52.480;13.348;2023-04-15T04:40:28;30.80;;;21.10;;
7263;SDS011;3673;52.480;13.348;2023-04-15T04:42:55;30.77;;;21.30;;
7263;SDS011;3673;52.480;13.348;2023-04-15T04:45:22;28.23;;;20.50;;
7263;SDS011;3673;52.480;13.348;2023-04-15T04:47:49;30.23;;;20.70;;
7263;SDS011;3673;52.480;13.348;2023-04-15T04:50:15;29.27;;;21.00;;
7263;SDS011;3673;52.480;13.348;2023-04-15T04:52:44;30.15;;;20.70;;
7263;SDS011;3673;52.480;13.348;2023-04-15T04:55:10;30.38;;;20.65;;
7263;SDS011;3673;52.480;13.348;2023-04-15T04:57:37;29.10;;;19.77;;
7263;SDS011;3673;52.480;13.348;2023-04-15T05:00:05;28.05;;;20.63;;
7263;SDS011;3673;52.480;13.348;2023-04-15T05:02:33;30.23;;;21.27;;
7263;SDS011;3673;52.480;13.348;2023-04-15T05:05:00;28.20;;;19.25;;
7263;SDS011;3673;52.480;13.348;2023-04-15T05:07:27;29.65;;;19.73;;
7263;SDS011;3673;52.480;13.348;2023-04-15T05:09:55;28.65;;;20.55;;
7263;SDS011;3673;52.480;13.348;2023-04-15T05:12:22;26.80;;;18.80;;
7263;SDS011;3673;52.480;13.348;2023-04-15T05:14:49;27.75;;;19.45;;
7263;SDS011;3673;52.480;13.348;2023-04-15T05:17:16;25.63;;;19.02;;
7263;SDS011;3673;52.480;13.348;2023-04-15T05:19:43;30.30;;;19.30;;
7263;SDS011;3673;52.480;13.348;2023-04-15T05:22:10;27.75;;;18.65;;
7263;SDS011;3673;52.480;13.348;2023-04-15T05:24:37;25.95;;;18.23;;
7263;SDS011;3673;52.480;13.348;2023-04-15T05:27:05;25.00;;;17.70;;
7263;SDS011;3673;52.480;13.348;2023-04-15T05:29:32;23.23;;;16.85;;
7263;SDS011;3673;52.480;13.348;2023-04-15T05:31:59;26.63;;;18.33;;
7263;SDS011;3673;52.480;13.348;2023-04-15T05:34:26;24.15;;;17.83;;
7263;SDS011;3673;52.480;13.348;2023-04-15T05:36:52;23.10;;;16.42;;
7263;SDS011;3673;52.480;13.348;2023-04-15T05:39:19;27.55;;;17.20;;
7263;SDS011;3673;52.480;13.348;2023-04-15T05:41:46;22.15;;;16.50;;
7263;SDS011;3673;52.480;13.348;2023-04-15T05:44:14;22.35;;;15.57;;
7263;SDS011;3673;52.480;13.348;2023-04-15T05:46:41;24.38;;;17.13;;
7263;SDS011;3673;52.480;13.348;2023-04-15T05:49:08;21.08;;;15.38;;
7263;SDS011;3673;52.480;13.348;2023-04-15T05:51:35;19.20;;;15.50;;
7263;SDS011;3673;52.480;13.348;2023-04-15T05:54:02;23.52;;;15.32;;
7263;SDS011;3673;52.480;13.348;2023-04-15T05:56:28;20.80;;;15.05;;
7263;SDS011;3673;52.480;13.348;2023-04-15T05:58:55;20.90;;;15.65;;
7263;SDS011;3673;52.480;13.348;2023-04-15T06:01:23;20.88;;;15.10;;
7263;SDS011;3673;52.480;13.348;2023-04-15T06:03:50;21.70;;;15.82;;
7263;SDS011;3673;52.480;13.348;2023-04-15T06:06:17;21.98;;;14.32;;
7263;SDS011;3673;52.480;13.348;2023-04-15T06:08:44;20.38;;;14.52;;
7263;SDS011;3673;52.480;13.348;2023-04-15T06:11:11;23.85;;;14.52;;
7263;SDS011;3673;52.480;13.348;2023-04-15T06:13:38;19.50;;;14.73;;
7263;SDS011;3673;52.480;13.348;2023-04-15T06:16:05;24.00;;;14.27;;
7263;SDS011;3673;52.480;13.348;2023-04-15T06:18:34;19.63;;;15.20;;
7263;SDS011;3673;52.480;13.348;2023-04-15T06:21:00;23.67;;;15.63;;
7263;SDS011;3673;52.480;13.348;2023-04-15T06:23:27;18.67;;;14.38;;
7263;SDS011;3673;52.480;13.348;2023-04-15T06:25:54;20.75;;;15.10;;
7263;SDS011;3673;52.480;13.348;2023-04-15T06:28:21;18.88;;;13.70;;
7263;SDS011;3673;52.480;13.348;2023-04-15T06:30:48;15.98;;;12.85;;
7263;SDS011;3673;52.480;13.348;2023-04-15T06:33:14;14.88;;;12.80;;
7263;SDS011;3673;52.480;13.348;2023-04-15T06:35:43;16.13;;;13.23;;
7263;SDS011;3673;52.480;13.348;2023-04-15T06:38:09;21.65;;;14.00;;
7263;SDS011;3673;52.480;13.348;2023-04-15T06:40:36;17.80;;;13.10;;
7263;SDS011;3673;52.480;13.348;2023-04-15T06:43:03;16.88;;;12.48;;
7263;SDS011;3673;52.480;13.348;2023-04-15T06:45:30;18.05;;;12.45;;
7263;SDS011;3673;52.480;13.348;2023-04-15T06:47:57;15.00;;;11.60;;
7263;SDS011;3673;52.480;13.348;2023-04-15T06:50:23;16.25;;;12.43;;
7263;SDS011;3673;52.480;13.348;2023-04-15T06:52:52;16.60;;;11.98;;
7263;SDS011;3673;52.480;13.348;2023-04-15T06:55:19;15.63;;;11.88;;
7263;SDS011;3673;52.480;13.348;2023-04-15T06:57:46;15.48;;;12.10;;
7263;SDS011;3673;52.480;13.348;2023-04-15T07:00:13;14.10;;;11.02;;
7263;SDS011;3673;52.480;13.348;2023-04-15T07:02:40;15.75;;;11.93;;
7263;SDS011;3673;52.480;13.348;2023-04-15T07:05:07;13.02;;;10.88;;
7263;SDS011;3673;52.480;13.348;2023-04-15T07:07:34;12.82;;;10.52;;
7263;SDS011;3673;52.480;13.348;2023-04-15T07:10:02;16.90;;;11.63;;
7263;SDS011;3673;52.480;13.348;2023-04-15T07:12:30;14.27;;;11.93;;
7263;SDS011;3673;52.480;13.348;2023-04-15T07:14:57;14.68;;;11.73;;
7263;SDS011;3673;52.480;13.348;2023-04-15T07:17:24;16.70;;;12.07;;
7263;SDS011;3673;52.480;13.348;2023-04-15T07:19:51;16.90;;;10.77;;
7263;SDS011;3673;52.480;13.348;2023-04-15T07:22:17;15.52;;;10.63;;
7263;SDS011;3673;52.480;13.348;2023-04-15T07:24:44;17.15;;;11.77;;
7263;SDS011;3673;52.480;13.348;2023-04-15T07:27:13;14.95;;;11.05;;
7263;SDS011;3673;52.480;13.348;2023-04-15T07:29:39;14.95;;;11.88;;
7263;SDS011;3673;52.480;13.348;2023-04-15T07:32:06;14.82;;;11.43;;
7263;SDS011;3673;52.480;13.348;2023-04-15T07:34:34;16.67;;;11.90;;
7263;SDS011;3673;52.480;13.348;2023-04-15T07:37:01;15.70;;;11.98;;
7263;SDS011;3673;52.480;13.348;2023-04-15T07:39:28;16.08;;;12.35;;
7263;SDS011;3673;52.480;13.348;2023-04-15T07:41:55;18.48;;;12.23;;
7263;SDS011;3673;52.480;13.348;2023-04-15T07:44:24;14.02;;;11.38;;
7263;SDS011;3673;52.480;13.348;2023-04-15T07:46:51;16.70;;;12.40;;
7263;SDS011;3673;52.480;13.348;2023-04-15T07:49:18;17.10;;;11.73;;
7263;SDS011;3673;52.480;13.348;2023-04-15T07:51:45;16.35;;;11.63;;
7263;SDS011;3673;52.480;13.348;2023-04-15T07:54:12;12.32;;;10.57;;
7263;SDS011;3673;52.480;13.348;2023-04-15T07:56:39;13.88;;;10.93;;
7263;SDS011;3673;52.480;13.348;2023-04-15T07:59:06;15.30;;;12.32;;
7263;SDS011;3673;52.480;13.348;2023-04-15T08:01:35;15.73;;;11.60;;
7263;SDS011;3673;52.480;13.348;2023-04-15T08:04:02;12.98;;;11.57;;
7263;SDS011;3673;52.480;13.348;2023-04-15T08:06:30;14.30;;;11.80;;
7263;SDS011;3673;52.480;13.348;2023-04-15T08:08:56;16.52;;;13.10;;
7263;SDS011;3673;52.480;13.348;2023-04-15T08:11:23;16.85;;;12.25;;
7263;SDS011;3673;52.480;13.348;2023-04-15T08:13:51;16.60;;;12.80;;
7263;SDS011;3673;52.480;13.348;2023-04-15T08:16:19;16.65;;;12.52;;
7263;SDS011;3673;52.480;13.348;2023-04-15T08:18:50;15.63;;;12.27;;
7263;SDS011;3673;52.480;13.348;2023-04-15T08:21:18;18.65;;;12.85;;
7263;SDS011;3673;52.480;13.348;2023-04-15T08:23:46;14.60;;;12.32;;
7263;SDS011;3673;52.480;13.348;2023-04-15T08:26:15;16.45;;;12.77;;
7263;SDS011;3673;52.480;13.348;2023-04-15T08:28:43;14.50;;;12.43;;
7263;SDS011;3673;52.480;13.348;2023-04-15T08:31:11;16.67;;;13.30;;
7263;SDS011;3673;52.480;13.348;2023-04-15T08:33:39;16.08;;;13.45;;
7263;SDS011;3673;52.480;13.348;2023-04-15T08:36:07;15.85;;;12.75;;
7263;SDS011;3673;52.480;13.348;2023-04-15T08:38:34;15.27;;;12.95;;
7263;SDS011;3673;52.480;13.348;2023-04-15T08:41:02;17.38;;;13.07;;
7263;SDS011;3673;52.480;13.348;2023-04-15T08:43:38;15.35;;;13.25;;
7263;SDS011;3673;52.480;13.348;2023-04-15T08:46:12;16.13;;;13.65;;
7263;SDS011;3673;52.480;13.348;2023-04-15T08:48:40;16.27;;;13.30;;
7263;SDS011;3673;52.480;13.348;2023-04-15T08:51:10;15.07;;;13.35;;
7263;SDS011;3673;52.480;13.348;2023-04-15T08:53:40;17.08;;;12.80;;
7263;SDS011;3673;52.480;13.348;2023-04-15T08:56:08;17.33;;;13.05;;
7263;SDS011;3673;52.480;13.348;2023-04-15T08:58:36;18.05;;;13.48;;
7263;SDS011;3673;52.480;13.348;2023-04-15T09:01:03;17.65;;;13.73;;
7263;SDS011;3673;52.480;13.348;2023-04-15T09:03:31;16.58;;;13.45;;
7263;SDS011;3673;52.480;13.348;2023-04-15T09:05:58;16.92;;;12.07;;
7263;SDS011;3673;52.480;13.348;2023-04-15T09:08:26;17.40;;;13.40;;
7263;SDS011;3673;52.480;13.348;2023-04-15T09:10:53;14.98;;;12.95;;
7263;SDS011;3673;52.480;13.348;2023-04-15T09:13:20;17.17;;;13.68;;
7263;SDS011;3673;52.480;13.348;2023-04-15T09:15:47;18.17;;;13.45;;
7263;SDS011;3673;52.480;13.348;2023-04-15T09:18:21;15.82;;;12.88;;
7263;SDS011;3673;52.480;13.348;2023-04-15T09:20:53;15.73;;;12.55;;
7263;SDS011;3673;52.480;13.348;2023-04-15T09:23:20;16.58;;;12.75;;
7263;SDS011;3673;52.480;13.348;2023-04-15T09:25:48;15.73;;;13.52;;
7263;SDS011;3673;52.480;13.348;2023-04-15T09:28:22;15.82;;;12.88;;
7263;SDS011;3673;52.480;13.348;2023-04-15T09:30:51;14.77;;;12.68;;
7263;SDS011;3673;52.480;13.348;2023-04-15T09:33:21;15.43;;;13.23;;
7263;SDS011;3673;52.480;13.348;2023-04-15T09:35:58;14.85;;;12.73;;
7263;SDS011;3673;52.480;13.348;2023-04-15T09:38:27;15.23;;;12.52;;
7263;SDS011;3673;52.480;13.348;2023-04-15T09:40:56;17.98;;;13.88;;
7263;SDS011;3673;52.480;13.348;2023-04-15T09:43:35;14.27;;;12.65;;
7263;SDS011;3673;52.480;13.348;2023-04-15T09:46:03;14.73;;;12.25;;
7263;SDS011;3673;52.480;13.348;2023-04-15T09:48:30;15.40;;;13.70;;
7263;SDS011;3673;52.480;13.348;2023-04-15T09:50:57;14.10;;;12.60;;
7263;SDS011;3673;52.480;13.348;2023-04-15T09:53:26;15.93;;;13.50;;
7263;SDS011;3673;52.480;13.348;2023-04-15T09:55:53;15.52;;;12.63;;
7263;SDS011;3673;52.480;13.348;2023-04-15T09:58:25;19.23;;;15.38;;
7263;SDS011;3673;52.480;13.348;2023-04-15T10:00:53;17.50;;;15.25;;
7263;SDS011;3673;52.480;13.348;2023-04-15T10:03:22;18.20;;;13.68;;
7263;SDS011;3673;52.480;13.348;2023-04-15T10:05:51;16.60;;;13.63;;
7263;SDS011;3673;52.480;13.348;2023-04-15T10:08:21;14.65;;;11.48;;
7263;SDS011;3673;52.480;13.348;2023-04-15T10:10:50;13.23;;;10.90;;
7263;SDS011;3673;52.480;13.348;2023-04-15T10:13:19;12.68;;;11.05;;
7263;SDS011;3673;52.480;13.348;2023-04-15T10:15:50;21.08;;;12.07;;
7263;SDS011;3673;52.480;13.348;2023-04-15T10:18:24;15.93;;;11.93;;
7263;SDS011;3673;52.480;13.348;2023-04-15T10:20:53;12.75;;;11.25;;
7263;SDS011;3673;52.480;13.348;2023-04-15T10:23:21;16.33;;;14.27;;
7263;SDS011;3673;52.480;13.348;2023-04-15T10:25:49;14.88;;;12.75;;
7263;SDS011;3673;52.480;13.348;2023-04-15T10:28:20;13.85;;;12.23;;
7263;SDS011;3673;52.480;13.348;2023-04-15T10:30:47;14.27;;;11.93;;
7263;SDS011;3673;52.480;13.348;2023-04-15T10:33:15;13.98;;;11.75;;
7263;SDS011;3673;52.480;13.348;2023-04-15T10:35:45;14.02;;;11.55;;
7263;SDS011;3673;52.480;13.348;2023-04-15T10:38:33;19.80;;;15.45;;
7263;SDS011;3673;52.480;13.348;2023-04-15T10:41:14;17.33;;;14.18;;
7263;SDS011;3673;52.480;13.348;2023-04-15T10:43:51;15.05;;;11.75;;
7263;SDS011;3673;52.480;13.348;2023-04-15T10:46:23;14.20;;;11.15;;
7263;SDS011;3673;52.480;13.348;2023-04-15T10:49:00;15.57;;;13.02;;
7263;SDS011;3673;52.480;13.348;2023-04-15T10:51:33;15.95;;;12.65;;
7263;SDS011;3673;52.480;13.348;2023-04-15T10:54:07;15.65;;;12.75;;
7263;SDS011;3673;52.480;13.348;2023-04-15T10:56:40;13.40;;;11.82;;
7263;SDS011;3673;52.480;13.348;2023-04-15T10:59:09;14.27;;;12.38;;
7263;SDS011;3673;52.480;13.348;2023-04-15T11:01:49;15.23;;;13.02;;
7263;SDS011;3673;52.480;13.348;2023-04-15T11:07:38;12.80;;;11.38;;
7263;SDS011;3673;52.480;13.348;2023-04-15T11:13:19;18.73;;;12.32;;
7263;SDS011;3673;52.480;13.348;2023-04-15T11:15:57;17.23;;;12.07;;
7263;SDS011;3673;52.480;13.348;2023-04-15T11:18:27;16.42;;;12.45;;
7263;SDS011;3673;52.480;13.348;2023-04-15T11:20:57;13.40;;;11.05;;
7263;SDS011;3673;52.480;13.348;2023-04-15T11:23:28;13.73;;;11.57;;
7263;SDS011;3673;52.480;13.348;2023-04-15T11:25:58;14.65;;;11.60;;
7263;SDS011;3673;52.480;13.348;2023-04-15T11:28:29;17.23;;;12.23;;
7263;SDS011;3673;52.480;13.348;2023-04-15T11:31:02;15.23;;;11.52;;
7263;SDS011;3673;52.480;13.348;2023-04-15T11:33:32;17.90;;;14.05;;
7263;SDS011;3673;52.480;13.348;2023-04-15T11:35:59;22.92;;;13.02;;
7263;SDS011;3673;52.480;13.348;2023-04-15T11:38:27;13.00;;;11.60;;
7263;SDS011;3673;52.480;13.348;2023-04-15T11:40:55;14.55;;;12.35;;
7263;SDS011;3673;52.480;13.348;2023-04-15T11:43:22;14.93;;;12.32;;
7263;SDS011;3673;52.480;13.348;2023-04-15T11:45:50;15.25;;;11.82;;
7263;SDS011;3673;52.480;13.348;2023-04-15T11:48:21;15.05;;;12.07;;
7263;SDS011;3673;52.480;13.348;2023-04-15T11:50:52;15.65;;;13.00;;
7263;SDS011;3673;52.480;13.348;2023-04-15T11:53:21;15.23;;;13.07;;
7263;SDS011;3673;52.480;13.348;2023-04-15T11:55:49;13.15;;;11.75;;
7263;SDS011;3673;52.480;13.348;2023-04-15T11:58:18;13.85;;;11.88;;
7263;SDS011;3673;52.480;13.348;2023-04-15T12:00:47;15.85;;;11.88;;
7263;SDS011;3673;52.480;13.348;2023-04-15T12:03:20;18.58;;;12.95;;
7263;SDS011;3673;52.480;13.348;2023-04-15T12:06:05;12.77;;;11.10;;
7263;SDS011;3673;52.480;13.348;2023-04-15T12:08:47;15.07;;;11.65;;
7263;SDS011;3673;52.480;13.348;2023-04-15T12:11:30;16.15;;;12.10;;
7263;SDS011;3673;52.480;13.348;2023-04-15T12:14:05;15.43;;;13.35;;
7263;SDS011;3673;52.480;13.348;2023-04-15T12:16:46;13.57;;;11.80;;
7263;SDS011;3673;52.480;13.348;2023-04-15T12:19:16;16.38;;;12.90;;
7263;SDS011;3673;52.480;13.348;2023-04-15T12:21:48;14.40;;;11.98;;
7263;SDS011;3673;52.480;13.348;2023-04-15T12:24:18;13.48;;;11.40;;
7263;SDS011;3673;52.480;13.348;2023-04-15T12:26:48;14.55;;;12.40;;
7263;SDS011;3673;52.480;13.348;2023-04-15T12:29:16;14.95;;;12.07;;
7263;SDS011;3673;52.480;13.348;2023-04-15T12:31:47;17.45;;;13.27;;
7263;SDS011;3673;52.480;13.348;2023-04-15T12:34:17;12.85;;;11.52;;
7263;SDS011;3673;52.480;13.348;2023-04-15T12:36:51;12.65;;;10.50;;
7263;SDS011;3673;52.480;13.348;2023-04-15T12:39:20;13.25;;;9.48;;
7263;SDS011;3673;52.480;13.348;2023-04-15T12:41:48;15.75;;;10.93;;
7263;SDS011;3673;52.480;13.348;2023-04-15T12:44:15;17.50;;;11.00;;
7263;SDS011;3673;52.480;13.348;2023-04-15T12:46:42;12.13;;;10.35;;
7263;SDS011;3673;52.480;13.348;2023-04-15T12:49:09;12.00;;;8.82;;
7263;SDS011;3673;52.480;13.348;2023-04-15T12:51:37;14.05;;;10.10;;
7263;SDS011;3673;52.480;13.348;2023-04-15T12:54:04;12.13;;;10.57;;
7263;SDS011;3673;52.480;13.348;2023-04-15T12:56:31;11.85;;;10.25;;
7263;SDS011;3673;52.480;13.348;2023-04-15T12:58:58;15.77;;;10.82;;
7263;SDS011;3673;52.480;13.348;2023-04-15T13:01:25;12.32;;;9.77;;
7263;SDS011;3673;52.480;13.348;2023-04-15T13:03:51;14.63;;;10.25;;
7263;SDS011;3673;52.480;13.348;2023-04-15T13:06:18;11.73;;;10.48;;
7263;SDS011;3673;52.480;13.348;2023-04-15T13:08:46;17.02;;;11.35;;
7263;SDS011;3673;52.480;13.348;2023-04-15T13:11:13;10.35;;;9.05;;
7263;SDS011;3673;52.480;13.348;2023-04-15T13:13:41;12.25;;;8.73;;
7263;SDS011;3673;52.480;13.348;2023-04-15T13:16:08;12.20;;;10.30;;
7263;SDS011;3673;52.480;13.348;2023-04-15T13:18:35;12.30;;;10.02;;
7263;SDS011;3673;52.480;13.348;2023-04-15T13:21:02;10.75;;;9.32;;
7263;SDS011;3673;52.480;13.348;2023-04-15T13:23:31;13.57;;;9.13;;
7263;SDS011;3673;52.480;13.348;2023-04-15T13:25:59;10.32;;;8.30;;
7263;SDS011;3673;52.480;13.348;2023-04-15T13:28:26;10.32;;;8.77;;
7263;SDS011;3673;52.480;13.348;2023-04-15T13:30:53;12.95;;;9.95;;
7263;SDS011;3673;52.480;13.348;2023-04-15T13:33:19;11.68;;;9.45;;
7263;SDS011;3673;52.480;13.348;2023-04-15T13:35:46;13.50;;;9.02;;
7263;SDS011;3673;52.480;13.348;2023-04-15T13:38:13;12.18;;;9.50;;
7263;SDS011;3673;52.480;13.348;2023-04-15T13:40:40;10.38;;;8.10;;
7263;SDS011;3673;52.480;13.348;2023-04-15T13:43:08;10.63;;;9.23;;
7263;SDS011;3673;52.480;13.348;2023-04-15T13:45:35;10.88;;;8.30;;
7263;SDS011;3673;52.480;13.348;2023-04-15T13:48:02;10.65;;;9.55;;
7263;SDS011;3673;52.480;13.348;2023-04-15T13:50:29;14.13;;;10.27;;
7263;SDS011;3673;52.480;13.348;2023-04-15T13:52:56;10.50;;;8.75;;
7263;SDS011;3673;52.480;13.348;2023-04-15T13:55:22;11.70;;;9.27;;
7263;SDS011;3673;52.480;13.348;2023-04-15T13:57:49;10.73;;;8.93;;
7263;SDS011;3673;52.480;13.348;2023-04-15T14:00:17;11.13;;;9.63;;
7263;SDS011;3673;52.480;13.348;2023-04-15T14:02:44;9.25;;;8.25;;
7263;SDS011;3673;52.480;13.348;2023-04-15T14:05:11;12.57;;;8.73;;
7263;SDS011;3673;52.480;13.348;2023-04-15T14:07:38;12.00;;;8.60;;
7263;SDS011;3673;52.480;13.348;2023-04-15T14:10:05;9.85;;;7.85;;
7263;SDS011;3673;52.480;13.348;2023-04-15T14:12:33;8.30;;;7.50;;
7263;SDS011;3673;52.480;13.348;2023-04-15T14:15:00;9.93;;;7.82;;
7263;SDS011;3673;52.480;13.348;2023-04-15T14:17:28;11.60;;;9.10;;
7263;SDS011;3673;52.480;13.348;2023-04-15T14:19:55;8.45;;;6.90;;
7263;SDS011;3673;52.480;13.348;2023-04-15T14:22:22;13.68;;;7.25;;
7263;SDS011;3673;52.480;13.348;2023-04-15T14:24:48;8.00;;;7.10;;
7263;SDS011;3673;52.480;13.348;2023-04-15T14:27:17;8.88;;;7.05;;
7263;SDS011;3673;52.480;13.348;2023-04-15T14:29:44;10.27;;;8.25;;
7263;SDS011;3673;52.480;13.348;2023-04-15T14:32:11;13.90;;;9.90;;
7263;SDS011;3673;52.480;13.348;2023-04-15T14:34:39;11.65;;;8.73;;
7263;SDS011;3673;52.480;13.348;2023-04-15T14:37:06;11.75;;;9.27;;
7263;SDS011;3673;52.480;13.348;2023-04-15T14:39:32;9.52;;;8.32;;
7263;SDS011;3673;52.480;13.348;2023-04-15T14:41:59;9.50;;;8.20;;
7263;SDS011;3673;52.480;13.348;2023-04-15T14:44:26;12.05;;;8.98;;
7263;SDS011;3673;52.480;13.348;2023-04-15T14:46:54;11.00;;;9.32;;